Vingaren — OZ2131 — position and weather

sailwx.info

Track history (hours):
 
Tides and Currents Weather Stations Pressure Air Temp Water Temp Dewpoint Dewpoint Depression Visibility Wind Speed Wind Dir Waves Ship Positions

Vingaren

Last reported at 2017-Dec-09 10:30 UTC. Time now 2017-Dec-11 11:25 UTC.
Position N 59°31' E 016°45'.

Length 89 m; draft 6.2 m.

Type: Cargo ship. MMSI: 231844000.

Date/timePositionNaut miles runAvg speedWind from/ knotsBaromVisibWave heightAir tempDewpointWater temp
2017-Dec-09 10:30N 59°31' E 016°45'5 9.7
2017-Dec-09 10:00N 59°29' E 016°54'4 7.2
2017-Dec-09 09:31N 59°31' E 016°59'3 6.6
2017-Dec-09 09:01N 59°32' E 017°05'5 9.2
2017-Dec-09 08:30N 59°29' E 017°13'4 9.0
2017-Dec-09 08:01N 59°26' E 017°20'5 9.1
2017-Dec-09 07:31N 59°23' E 017°26'3 6.1
2017-Dec-09 06:59N 59°20' E 017°29'0 0.0
2017-Dec-09 06:29N 59°20' E 017°29'0 0.0
2017-Dec-09 05:59N 59°20' E 017°29'0 0.0
2017-Dec-09 05:29N 59°20' E 017°29'0 0.0
2017-Dec-09 04:59N 59°20' E 017°29'0 0.0
2017-Dec-09 04:29N 59°20' E 017°29'0 0.0
2017-Dec-09 03:59N 59°20' E 017°29'0 0.0
2017-Dec-09 03:29N 59°20' E 017°29'0 0.0
2017-Dec-09 02:59N 59°20' E 017°29'0 0.0
2017-Dec-09 02:29N 59°20' E 017°29'0 0.0
2017-Dec-09 01:59N 59°20' E 017°29'0 0.0
2017-Dec-09 01:29N 59°20' E 017°29'0 0.0
2017-Dec-09 00:59N 59°20' E 017°29'0 0.0
2017-Dec-09 00:29N 59°20' E 017°29'0 0.0
2017-Dec-08 23:58N 59°20' E 017°29'0 0.0
2017-Dec-08 23:28N 59°20' E 017°29'0 0.0
2017-Dec-08 22:58N 59°20' E 017°29'0 0.0
2017-Dec-08 22:28N 59°20' E 017°29'0 0.0
2017-Dec-08 21:58N 59°20' E 017°29'0 0.0
2017-Dec-08 21:28N 59°20' E 017°29'0 0.0
2017-Dec-08 20:58N 59°20' E 017°29'0 0.0
2017-Dec-08 20:25N 59°20' E 017°29'0 0.0
2017-Dec-08 19:55N 59°20' E 017°29'0 0.0
2017-Dec-08 19:28N 59°20' E 017°29'0 0.0
2017-Dec-08 18:58N 59°20' E 017°29'0 0.0
2017-Dec-08 18:28N 59°20' E 017°29'0 0.0
2017-Dec-08 17:58N 59°20' E 017°29'0 0.0
2017-Dec-08 17:28N 59°20' E 017°29'0 0.0
2017-Dec-08 16:52N 59°20' E 017°29'0 0.0
2017-Dec-08 16:28N 59°20' E 017°29'0 0.0
2017-Dec-08 15:58N 59°20' E 017°29'0 0.0
2017-Dec-08 15:28N 59°20' E 017°29'0 0.0
2017-Dec-08 14:58N 59°20' E 017°29'0 0.0
2017-Dec-08 14:28N 59°20' E 017°29'0 0.0
2017-Dec-08 13:58N 59°20' E 017°29'0 0.0
2017-Dec-08 13:28N 59°20' E 017°29'0 0.0
2017-Dec-08 12:58N 59°20' E 017°29'0 0.2
2017-Dec-08 12:31N 59°20' E 017°29'4 6.9
2017-Dec-08 11:59N 59°18' E 017°34'4 8.9
2017-Dec-08 11:31N 59°14' E 017°36'11 5.2
2017-Dec-08 09:21N 59°03' E 017°42'3 8.9
2017-Dec-08 09:00N 58°60' E 017°43'5 9.8
2017-Dec-08 08:30N 58°55' E 017°43'5 9.8
2017-Dec-08 08:00N 58°50' E 017°44'4 8.9
2017-Dec-08 07:30N 58°46' E 017°48'5 8.5
2017-Dec-08 06:58N 58°42' E 017°52'  
2017-Nov-30 21:33N 56°09' E 010°13'0 0.4
2017-Nov-30 21:29N 56°09' E 010°13'1 3.1
2017-Nov-30 21:01N 56°09' E 010°16'4 8.6
2017-Nov-30 20:30N 56°07' E 010°22'55 8.0
2017-Nov-30 13:35N 56°11' E 012°01'110.0
2017-Nov-30 13:30N 56°11' E 012°02'5 9.8
2017-Nov-30 13:00N 56°11' E 012°11'5 9.7
2017-Nov-30 12:30N 56°11' E 012°20'5 9.8
2017-Nov-30 12:00N 56°09' E 012°28'612.1
2017-Nov-30 11:30N 56°05' E 012°36'611.0
2017-Nov-30 11:00N 56°01' E 012°41'510.9
2017-Nov-30 10:30N 55°55' E 012°44'510.7
2017-Nov-30 10:00N 55°50' E 012°43'510.9
2017-Nov-30 09:30N 55°45' E 012°41'510.8
2017-Nov-30 09:00N 55°39' E 012°42'510.2
2017-Nov-30 08:30N 55°34' E 012°42'5 9.7
2017-Nov-30 08:00N 55°29' E 012°43'510.1
2017-Nov-30 07:30N 55°24' E 012°41'5 9.7
2017-Nov-30 07:00N 55°20' E 012°41'5 9.3
2017-Nov-30 06:30N 55°17' E 012°48'510.0
2017-Nov-30 06:00N 55°16' E 012°56'4 8.7
2017-Nov-30 05:30N 55°13' E 013°03'108 9.5
2017-Nov-29 18:08N 53°39' E 014°33'2 9.6
2017-Nov-29 17:57N 53°37' E 014°35'4 9.8
2017-Nov-29 17:29N 53°33' E 014°37'4 8.4
2017-Nov-29 17:00N 53°29' E 014°37'0 0.3
2017-Nov-29 16:28N 53°29' E 014°37'0 0.0
2017-Nov-29 15:58N 53°29' E 014°37'0 0.0
2017-Nov-29 15:28N 53°29' E 014°37'0 0.0
2017-Nov-29 14:58N 53°29' E 014°37'0 0.0
2017-Nov-29 14:28N 53°29' E 014°37'0 0.0
2017-Nov-29 13:58N 53°29' E 014°37'0 0.0
2017-Nov-29 13:28N 53°29' E 014°37'0 0.0
2017-Nov-29 12:58N 53°29' E 014°37'0 0.0
2017-Nov-29 12:28N 53°29' E 014°37'0 0.0
2017-Nov-29 11:58N 53°29' E 014°37'0 0.0
2017-Nov-29 11:28N 53°29' E 014°37'0 0.1
2017-Nov-29 10:58N 53°29' E 014°37'0 0.0
2017-Nov-29 10:31N 53°29' E 014°37'  
Track history (hours):
 
Tides and Currents Weather Stations Pressure Air Temp Water Temp Dewpoint Dewpoint Depression Visibility Wind Speed Wind Dir Waves Ship Positions

Vingaren

Last reported at 2017-Dec-09 10:30 UTC. Time now 2017-Dec-11 11:25 UTC.
Position N 59°31' E 016°45'.

Length 89 m; draft 6.2 m.

Type: Cargo ship. MMSI: 231844000.

Date/timePositionNaut miles runAvg speedWind from/ knotsBaromVisibWave heightAir tempDewpointWater temp
2017-Dec-09 10:30N 59°31' E 016°45'5 9.7
2017-Dec-09 10:00N 59°29' E 016°54'4 7.2
2017-Dec-09 09:31N 59°31' E 016°59'3 6.6
2017-Dec-09 09:01N 59°32' E 017°05'5 9.2
2017-Dec-09 08:30N 59°29' E 017°13'4 9.0
2017-Dec-09 08:01N 59°26' E 017°20'5 9.1
2017-Dec-09 07:31N 59°23' E 017°26'3 6.1
2017-Dec-09 06:59N 59°20' E 017°29'0 0.0
2017-Dec-09 06:29N 59°20' E 017°29'0 0.0
2017-Dec-09 05:59N 59°20' E 017°29'0 0.0
2017-Dec-09 05:29N 59°20' E 017°29'0 0.0
2017-Dec-09 04:59N 59°20' E 017°29'0 0.0
2017-Dec-09 04:29N 59°20' E 017°29'0 0.0
2017-Dec-09 03:59N 59°20' E 017°29'0 0.0
2017-Dec-09 03:29N 59°20' E 017°29'0 0.0
2017-Dec-09 02:59N 59°20' E 017°29'0 0.0
2017-Dec-09 02:29N 59°20' E 017°29'0 0.0
2017-Dec-09 01:59N 59°20' E 017°29'0 0.0
2017-Dec-09 01:29N 59°20' E 017°29'0 0.0
2017-Dec-09 00:59N 59°20' E 017°29'0 0.0
2017-Dec-09 00:29N 59°20' E 017°29'0 0.0
2017-Dec-08 23:58N 59°20' E 017°29'0 0.0
2017-Dec-08 23:28N 59°20' E 017°29'0 0.0
2017-Dec-08 22:58N 59°20' E 017°29'0 0.0
2017-Dec-08 22:28N 59°20' E 017°29'0 0.0
2017-Dec-08 21:58N 59°20' E 017°29'0 0.0
2017-Dec-08 21:28N 59°20' E 017°29'0 0.0
2017-Dec-08 20:58N 59°20' E 017°29'0 0.0
2017-Dec-08 20:25N 59°20' E 017°29'0 0.0
2017-Dec-08 19:55N 59°20' E 017°29'0 0.0
2017-Dec-08 19:28N 59°20' E 017°29'0 0.0
2017-Dec-08 18:58N 59°20' E 017°29'0 0.0
2017-Dec-08 18:28N 59°20' E 017°29'0 0.0
2017-Dec-08 17:58N 59°20' E 017°29'0 0.0
2017-Dec-08 17:28N 59°20' E 017°29'0 0.0
2017-Dec-08 16:52N 59°20' E 017°29'0 0.0
2017-Dec-08 16:28N 59°20' E 017°29'0 0.0
2017-Dec-08 15:58N 59°20' E 017°29'0 0.0
2017-Dec-08 15:28N 59°20' E 017°29'0 0.0
2017-Dec-08 14:58N 59°20' E 017°29'0 0.0
2017-Dec-08 14:28N 59°20' E 017°29'0 0.0
2017-Dec-08 13:58N 59°20' E 017°29'0 0.0
2017-Dec-08 13:28N 59°20' E 017°29'0 0.0
2017-Dec-08 12:58N 59°20' E 017°29'0 0.2
2017-Dec-08 12:31N 59°20' E 017°29'4 6.9
2017-Dec-08 11:59N 59°18' E 017°34'4 8.9
2017-Dec-08 11:31N 59°14' E 017°36'11 5.2
2017-Dec-08 09:21N 59°03' E 017°42'3 8.9
2017-Dec-08 09:00N 58°60' E 017°43'5 9.8
2017-Dec-08 08:30N 58°55' E 017°43'5 9.8
2017-Dec-08 08:00N 58°50' E 017°44'4 8.9
2017-Dec-08 07:30N 58°46' E 017°48'5 8.5
2017-Dec-08 06:58N 58°42' E 017°52'  
2017-Nov-30 21:33N 56°09' E 010°13'0 0.4
2017-Nov-30 21:29N 56°09' E 010°13'1 3.1
2017-Nov-30 21:01N 56°09' E 010°16'4 8.6
2017-Nov-30 20:30N 56°07' E 010°22'55 8.0
2017-Nov-30 13:35N 56°11' E 012°01'110.0
2017-Nov-30 13:30N 56°11' E 012°02'5 9.8
2017-Nov-30 13:00N 56°11' E 012°11'5 9.7
2017-Nov-30 12:30N 56°11' E 012°20'5 9.8
2017-Nov-30 12:00N 56°09' E 012°28'612.1
2017-Nov-30 11:30N 56°05' E 012°36'611.0
2017-Nov-30 11:00N 56°01' E 012°41'510.9
2017-Nov-30 10:30N 55°55' E 012°44'510.7
2017-Nov-30 10:00N 55°50' E 012°43'510.9
2017-Nov-30 09:30N 55°45' E 012°41'510.8
2017-Nov-30 09:00N 55°39' E 012°42'510.2
2017-Nov-30 08:30N 55°34' E 012°42'5 9.7
2017-Nov-30 08:00N 55°29' E 012°43'510.1
2017-Nov-30 07:30N 55°24' E 012°41'5 9.7
2017-Nov-30 07:00N 55°20' E 012°41'5 9.3
2017-Nov-30 06:30N 55°17' E 012°48'510.0
2017-Nov-30 06:00N 55°16' E 012°56'4 8.7
2017-Nov-30 05:30N 55°13' E 013°03'108 9.5
2017-Nov-29 18:08N 53°39' E 014°33'2 9.6
2017-Nov-29 17:57N 53°37' E 014°35'4 9.8
2017-Nov-29 17:29N 53°33' E 014°37'4 8.4
2017-Nov-29 17:00N 53°29' E 014°37'0 0.3
2017-Nov-29 16:28N 53°29' E 014°37'0 0.0
2017-Nov-29 15:58N 53°29' E 014°37'0 0.0
2017-Nov-29 15:28N 53°29' E 014°37'0 0.0
2017-Nov-29 14:58N 53°29' E 014°37'0 0.0
2017-Nov-29 14:28N 53°29' E 014°37'0 0.0
2017-Nov-29 13:58N 53°29' E 014°37'0 0.0
2017-Nov-29 13:28N 53°29' E 014°37'0 0.0
2017-Nov-29 12:58N 53°29' E 014°37'0 0.0
2017-Nov-29 12:28N 53°29' E 014°37'0 0.0
2017-Nov-29 11:58N 53°29' E 014°37'0 0.0
2017-Nov-29 11:28N 53°29' E 014°37'0 0.1
2017-Nov-29 10:58N 53°29' E 014°37'0 0.0
2017-Nov-29 10:31N 53°29' E 014°37'  

Dump ship's entire track history